createdAt,value
2023-02-18T00:00:32.644Z,8.82
2023-02-18T00:03:55.410Z,9.68
2023-02-18T00:07:17.871Z,8.85
2023-02-18T00:10:42.160Z,10.45
2023-02-18T00:14:07.244Z,10.32
2023-02-18T00:17:29.959Z,11.12
2023-02-18T00:20:52.568Z,9.20
2023-02-18T00:24:16.538Z,8.88
2023-02-18T00:27:39.190Z,9.03
2023-02-18T00:31:07.637Z,7.90
2023-02-18T00:34:30.089Z,8.18
2023-02-18T00:37:53.590Z,8.27
2023-02-18T00:41:16.137Z,7.55
2023-02-18T00:44:38.837Z,8.07
2023-02-18T00:48:02.534Z,7.28
2023-02-18T00:51:25.388Z,7.55
2023-02-18T00:54:48.068Z,7.10
2023-02-18T00:58:10.714Z,6.70
2023-02-18T01:01:33.404Z,3.40
2023-02-18T01:04:57.721Z,6.05
2023-02-18T01:08:20.553Z,6.90
2023-02-18T01:11:43.019Z,5.82
2023-02-18T01:15:06.192Z,4.77
2023-02-18T01:18:29.318Z,6.05
2023-02-18T01:21:53.522Z,5.50
2023-02-18T01:25:16.203Z,6.03
2023-02-18T01:28:38.276Z,5.97
2023-02-18T01:32:01.491Z,5.35
2023-02-18T01:35:24.275Z,4.82
2023-02-18T01:38:50.778Z,4.50
2023-02-18T01:42:19.630Z,3.30
2023-02-18T01:46:02.389Z,2.00
2023-02-18T01:49:29.006Z,1.60
2023-02-18T01:52:51.782Z,1.98
2023-02-18T01:56:17.792Z,2.60
2023-02-18T01:59:47.774Z,1.23
2023-02-18T02:03:10.590Z,1.85
2023-02-18T02:06:33.318Z,1.87
2023-02-18T02:09:55.873Z,1.40
2023-02-18T02:13:22.130Z,1.20
2023-02-18T02:16:46.991Z,1.23
2023-02-18T02:20:24.075Z,1.37
2023-02-18T02:24:01.497Z,1.00
2023-02-18T02:27:27.629Z,0.50
2023-02-18T02:31:09.734Z,0.88
2023-02-18T02:34:48.179Z,0.60
2023-02-18T02:38:13.796Z,0.47
2023-02-18T02:41:44.750Z,0.30
2023-02-18T02:45:11.210Z,0.43
2023-02-18T02:48:37.147Z,0.35
2023-02-18T02:52:02.056Z,0.30
2023-02-18T02:55:26.179Z,0.30
2023-02-18T02:58:50.290Z,0.53
2023-02-18T03:02:24.965Z,0.28
2023-02-18T03:05:56.242Z,0.40
2023-02-18T03:09:23.436Z,0.43
2023-02-18T03:12:49.929Z,0.50
2023-02-18T03:16:16.396Z,0.30
2023-02-18T03:19:39.942Z,0.37
2023-02-18T03:23:04.240Z,0.60
2023-02-18T03:26:28.337Z,0.40
2023-02-18T03:29:58.980Z,0.40
2023-02-18T03:33:24.580Z,0.47
2023-02-18T03:36:47.399Z,0.35
2023-02-18T03:40:10.817Z,0.20
2023-02-18T03:43:35.046Z,0.30
2023-02-18T03:46:57.549Z,0.40
2023-02-18T03:50:20.519Z,0.22
2023-02-18T03:53:43.168Z,0.30
2023-02-18T03:57:07.632Z,0.40
2023-02-18T04:00:31.491Z,0.30
2023-02-18T04:03:55.550Z,0.40
2023-02-18T04:07:18.175Z,0.32
2023-02-18T04:10:40.632Z,0.43
2023-02-18T04:14:03.152Z,0.30
2023-02-18T04:17:28.742Z,0.40
2023-02-18T04:20:54.104Z,0.30
2023-02-18T04:24:16.648Z,0.30
2023-02-18T04:27:39.174Z,0.40
2023-02-18T04:31:02.386Z,0.30
2023-02-18T04:34:26.043Z,0.43
2023-02-18T04:37:49.007Z,0.40
2023-02-18T04:41:12.830Z,0.50
2023-02-18T04:44:35.780Z,0.47
2023-02-18T04:47:58.454Z,0.50
2023-02-18T04:51:22.816Z,0.98
2023-02-18T04:54:45.335Z,0.50
2023-02-18T04:58:07.873Z,0.30
2023-02-18T05:01:30.330Z,0.80
2023-02-18T05:04:53.181Z,0.60
2023-02-18T05:08:17.000Z,0.50
2023-02-18T05:11:39.648Z,0.60
2023-02-18T05:15:02.189Z,0.90
2023-02-18T05:18:25.266Z,0.40
2023-02-18T05:21:47.730Z,0.40
2023-02-18T05:25:12.063Z,0.60
2023-02-18T05:28:34.724Z,0.50
2023-02-18T05:31:57.429Z,0.30
2023-02-18T05:35:19.963Z,0.40
2023-02-18T05:38:42.673Z,0.73
2023-02-18T05:42:06.626Z,0.35
2023-02-18T05:45:29.650Z,0.40
2023-02-18T05:48:52.063Z,0.50
2023-02-18T05:52:14.427Z,0.70
2023-02-18T05:55:39.293Z,0.50
2023-02-18T05:59:03.178Z,0.83
2023-02-18T06:02:25.601Z,1.33
2023-02-18T06:05:50.885Z,1.55
2023-02-18T06:09:13.828Z,1.70
2023-02-18T06:12:36.337Z,1.60
2023-02-18T06:16:00.219Z,1.67
2023-02-18T06:19:23.312Z,1.33
2023-02-18T06:22:45.858Z,1.52
2023-02-18T06:26:08.752Z,0.82
2023-02-18T06:29:31.696Z,1.00
2023-02-18T06:32:58.682Z,0.75
2023-02-18T06:36:21.418Z,0.40
2023-02-18T06:39:44.617Z,0.93
2023-02-18T06:43:07.149Z,0.85
2023-02-18T06:46:29.820Z,0.60
2023-02-18T06:49:53.666Z,0.40
2023-02-18T06:53:17.155Z,0.50
2023-02-18T06:56:39.767Z,0.75
2023-02-18T07:00:02.886Z,0.47
2023-02-18T07:03:25.299Z,0.50
2023-02-18T07:06:49.397Z,0.60
2023-02-18T07:10:12.262Z,1.05
2023-02-18T07:13:35.320Z,0.60
2023-02-18T07:16:58.282Z,0.60
2023-02-18T07:20:21.299Z,0.62
2023-02-18T07:23:45.345Z,1.02
2023-02-18T07:27:08.060Z,0.95
2023-02-18T07:30:30.574Z,0.62
2023-02-18T07:33:53.466Z,0.50
2023-02-18T07:37:16.104Z,0.70
2023-02-18T07:40:40.680Z,0.82
2023-02-18T07:44:03.266Z,1.30
2023-02-18T07:47:25.815Z,1.70
2023-02-18T07:50:48.600Z,1.23
2023-02-18T07:54:11.373Z,1.30
2023-02-18T07:57:55.171Z,0.60
2023-02-18T08:01:18.175Z,1.20
2023-02-18T08:04:41.148Z,1.00
2023-02-18T08:08:03.645Z,0.82
2023-02-18T08:11:26.275Z,1.10
2023-02-18T08:14:51.332Z,0.68
2023-02-18T08:18:16.489Z,0.68
2023-02-18T08:21:39.066Z,0.77
2023-02-18T08:25:01.607Z,0.70
2023-02-18T08:28:24.481Z,0.50
2023-02-18T08:31:48.700Z,0.60
2023-02-18T08:35:11.833Z,0.65
2023-02-18T08:38:35.042Z,0.70
2023-02-18T08:41:58.426Z,0.88
2023-02-18T08:45:21.146Z,0.57
2023-02-18T08:48:44.955Z,0.85
2023-02-18T08:52:08.165Z,0.60
2023-02-18T08:55:30.668Z,0.50
2023-02-18T08:58:53.610Z,0.40
2023-02-18T09:02:16.200Z,0.30
2023-02-18T09:05:40.425Z,0.30
2023-02-18T09:09:02.819Z,0.50
2023-02-18T09:12:25.562Z,0.30
2023-02-18T09:15:48.690Z,0.40
2023-02-18T09:19:11.775Z,0.80
2023-02-18T09:22:35.873Z,0.50
2023-02-18T09:25:59.006Z,0.60
2023-02-18T09:29:21.148Z,0.50
2023-02-18T09:32:43.620Z,0.40
2023-02-18T09:36:06.664Z,0.50
2023-02-18T09:39:30.799Z,0.32
2023-02-18T09:42:53.000Z,0.20
2023-02-18T09:46:20.889Z,0.30
2023-02-18T09:49:45.601Z,0.60
2023-02-18T09:53:08.422Z,0.80
2023-02-18T09:56:32.722Z,0.63
2023-02-18T09:59:59.244Z,0.60
2023-02-18T10:03:22.576Z,0.50
2023-02-18T10:06:45.234Z,0.80
2023-02-18T10:10:17.497Z,0.47
2023-02-18T10:13:42.601Z,0.47
2023-02-18T10:17:05.224Z,0.50
2023-02-18T10:20:29.627Z,0.50
2023-02-18T10:23:57.445Z,0.60
2023-02-18T10:27:23.019Z,0.60
2023-02-18T10:30:51.694Z,0.60
2023-02-18T10:34:17.133Z,1.00
2023-02-18T10:37:55.973Z,1.80
2023-02-18T10:41:24.506Z,1.20
2023-02-18T10:44:53.208Z,0.67
2023-02-18T10:48:35.175Z,0.95
2023-02-18T10:51:58.135Z,0.52
2023-02-18T10:55:22.145Z,0.37
2023-02-18T10:58:46.476Z,0.50
2023-02-18T11:02:17.413Z,0.40
2023-02-18T11:05:41.335Z,0.47
2023-02-18T11:09:04.157Z,0.50
2023-02-18T11:12:27.689Z,0.40
2023-02-18T11:15:58.880Z,0.35
2023-02-18T11:19:32.904Z,0.40
2023-02-18T11:23:00.486Z,0.50
2023-02-18T11:26:25.741Z,0.40
2023-02-18T11:29:50.285Z,0.62
2023-02-18T11:33:31.294Z,0.65
2023-02-18T11:36:54.390Z,0.77
2023-02-18T11:40:24.316Z,0.60
2023-02-18T11:43:49.242Z,0.40
2023-02-18T11:47:21.852Z,0.60
2023-02-18T11:50:44.473Z,0.57
2023-02-18T11:54:07.954Z,0.80
2023-02-18T11:57:35.471Z,0.80
2023-02-18T12:00:58.334Z,0.70
2023-02-18T12:04:21.413Z,0.32
2023-02-18T12:07:46.938Z,0.62
2023-02-18T12:11:11.857Z,0.67
2023-02-18T12:14:35.591Z,0.75
2023-02-18T12:18:18.046Z,1.40
2023-02-18T12:21:50.541Z,0.70
2023-02-18T12:25:25.721Z,1.80
2023-02-18T12:28:55.665Z,1.00
2023-02-18T12:32:29.769Z,1.62
2023-02-18T12:35:59.338Z,1.58
2023-02-18T12:39:30.051Z,1.00
2023-02-18T12:42:56.164Z,0.70
2023-02-18T12:46:50.087Z,1.05
2023-02-18T12:50:27.411Z,1.15
2023-02-18T12:54:07.040Z,1.55
2023-02-18T12:57:35.522Z,0.80
2023-02-18T13:01:10.163Z,1.10
2023-02-18T13:04:46.112Z,1.10
2023-02-18T13:08:17.952Z,0.73
2023-02-18T13:11:44.750Z,0.50
2023-02-18T13:15:12.923Z,0.40
2023-02-18T13:18:37.421Z,0.30
2023-02-18T13:22:01.206Z,0.45
2023-02-18T13:25:25.558Z,0.65
2023-02-18T13:28:52.919Z,1.08
2023-02-18T13:32:19.452Z,1.00
2023-02-18T13:35:43.947Z,0.75
2023-02-18T13:39:08.293Z,0.40
2023-02-18T13:42:37.290Z,1.55
2023-02-18T13:46:10.043Z,2.28
2023-02-18T13:49:34.854Z,1.30
2023-02-18T13:53:14.791Z,1.10
2023-02-18T13:56:41.882Z,0.60
2023-02-18T14:00:08.090Z,3.08
2023-02-18T14:03:51.749Z,0.85
2023-02-18T14:07:39.729Z,0.50
2023-02-18T14:11:33.072Z,1.10
2023-02-18T14:14:56.936Z,1.17
2023-02-18T14:18:36.662Z,2.50
2023-02-18T14:22:25.682Z,3.10
2023-02-18T14:25:52.021Z,2.67
2023-02-18T14:29:22.778Z,3.42
2023-02-18T14:32:46.360Z,4.05
2023-02-18T14:36:15.154Z,2.67
2023-02-18T14:39:44.554Z,3.63
2023-02-18T14:43:11.957Z,3.65
2023-02-18T14:46:39.049Z,6.03
2023-02-18T14:50:03.863Z,9.13
2023-02-18T14:53:28.974Z,11.07
2023-02-18T14:56:58.416Z,9.65
2023-02-18T15:00:22.909Z,8.30
2023-02-18T15:03:45.621Z,10.57
2023-02-18T15:07:10.406Z,9.90
2023-02-18T15:10:40.717Z,10.57
2023-02-18T15:14:03.320Z,12.77
2023-02-18T15:17:27.518Z,14.87
2023-02-18T15:20:50.559Z,15.48
2023-02-18T15:24:26.686Z,12.50
2023-02-18T15:27:55.441Z,16.17
2023-02-18T15:31:19.620Z,17.67
2023-02-18T15:34:44.683Z,19.83
2023-02-18T15:38:07.654Z,16.10
2023-02-18T15:41:29.906Z,21.43
2023-02-18T15:44:57.203Z,23.62
2023-02-18T15:48:33.789Z,26.20
2023-02-18T15:52:00.421Z,24.37
2023-02-18T15:55:27.891Z,29.73
2023-02-18T15:58:51.669Z,19.52
2023-02-18T16:02:24.069Z,28.62
2023-02-18T16:05:46.976Z,26.77
2023-02-18T16:09:14.935Z,26.40
2023-02-18T16:12:40.297Z,22.73
2023-02-18T16:16:03.225Z,21.62
2023-02-18T16:19:30.399Z,25.58
2023-02-18T16:22:54.474Z,24.60
2023-02-18T16:26:23.148Z,24.13
2023-02-18T16:29:47.018Z,26.60
2023-02-18T16:33:10.298Z,27.48
2023-02-18T16:36:35.215Z,21.67
2023-02-18T16:39:58.725Z,28.52
2023-02-18T16:43:23.839Z,25.70
2023-02-18T16:46:48.025Z,28.08
2023-02-18T16:50:15.255Z,31.58
2023-02-18T16:53:40.533Z,31.42
2023-02-18T16:57:03.231Z,29.33
2023-02-18T17:00:28.772Z,29.02
2023-02-18T17:03:53.788Z,27.95
2023-02-18T17:07:18.154Z,29.40
2023-02-18T17:10:42.799Z,28.80
2023-02-18T17:14:09.917Z,32.28
2023-02-18T17:17:32.717Z,33.33
2023-02-18T17:20:57.574Z,39.13
2023-02-18T17:24:21.563Z,32.03
2023-02-18T17:27:51.935Z,33.33
2023-02-18T17:31:18.190Z,37.47
2023-02-18T17:34:41.738Z,31.85
2023-02-18T17:38:07.810Z,32.50
2023-02-18T17:41:32.646Z,34.27
2023-02-18T17:44:58.150Z,29.30
2023-02-18T17:48:22.124Z,30.95
2023-02-18T17:51:46.085Z,49.40
2023-02-18T17:55:21.885Z,32.50
2023-02-18T17:58:47.090Z,29.90
2023-02-18T18:02:17.748Z,35.97
2023-02-18T18:05:42.399Z,31.37
2023-02-18T18:09:06.334Z,31.50
2023-02-18T18:12:31.181Z,34.37
2023-02-18T18:15:56.848Z,32.58
2023-02-18T18:19:26.208Z,34.25
2023-02-18T18:22:50.770Z,35.92
2023-02-18T18:26:15.795Z,32.80
2023-02-18T18:29:42.843Z,32.67
2023-02-18T18:33:11.972Z,36.58
2023-02-18T18:36:37.633Z,33.90
2023-02-18T18:40:02.257Z,29.17
2023-02-18T18:43:27.331Z,29.48
2023-02-18T18:46:53.274Z,27.98
2023-02-18T18:50:16.744Z,31.40
2023-02-18T18:53:42.448Z,30.15
2023-02-18T18:57:06.665Z,29.67
2023-02-18T19:00:32.975Z,28.58
2023-02-18T19:03:59.031Z,29.23
2023-02-18T19:07:23.937Z,28.85
2023-02-18T19:10:52.806Z,30.57
2023-02-18T19:14:17.030Z,30.25
2023-02-18T19:17:46.721Z,29.67
2023-02-18T19:21:12.750Z,28.92
2023-02-18T19:24:37.142Z,30.27
2023-02-18T19:28:03.507Z,32.45
2023-02-18T19:31:28.594Z,30.60
2023-02-18T19:34:53.617Z,32.28
2023-02-18T19:38:19.945Z,33.47
2023-02-18T19:41:44.793Z,30.37
2023-02-18T19:45:12.763Z,29.70
2023-02-18T19:48:37.495Z,32.60
2023-02-18T19:52:04.628Z,32.22
2023-02-18T19:55:29.688Z,34.27
2023-02-18T19:58:57.505Z,34.15
2023-02-18T20:02:24.829Z,37.90
2023-02-18T20:05:51.272Z,33.28
2023-02-18T20:09:15.640Z,32.13
2023-02-18T20:12:40.503Z,30.47
2023-02-18T20:16:03.860Z,28.23
2023-02-18T20:19:31.971Z,32.40
2023-02-18T20:22:58.566Z,27.77
2023-02-18T20:26:23.845Z,30.97
2023-02-18T20:29:52.564Z,24.27
2023-02-18T20:33:16.520Z,28.73
2023-02-18T20:36:42.870Z,24.98
2023-02-18T20:40:08.485Z,25.20
2023-02-18T20:43:33.031Z,28.43
2023-02-18T20:46:57.256Z,21.77
2023-02-18T20:54:05.756Z,22.48
2023-02-18T20:57:30.783Z,24.52
2023-02-18T21:00:59.523Z,24.33
2023-02-18T21:04:24.099Z,22.50
2023-02-18T21:07:49.702Z,23.65
2023-02-18T21:11:16.661Z,22.13
2023-02-18T21:14:40.790Z,21.83
2023-02-18T21:18:05.556Z,20.33
2023-02-18T21:21:30.651Z,20.98
2023-02-18T21:24:54.893Z,19.45
2023-02-18T21:28:21.050Z,21.52
2023-02-18T21:31:45.119Z,20.67
2023-02-18T21:35:08.729Z,22.52
2023-02-18T21:38:33.533Z,20.20
2023-02-18T21:42:00.368Z,21.40
2023-02-18T21:45:27.015Z,20.73
2023-02-18T21:49:10.015Z,20.47
2023-02-18T21:52:34.324Z,19.35
2023-02-18T21:56:03.834Z,21.10
2023-02-18T21:59:27.977Z,23.30
2023-02-18T22:02:51.876Z,26.08
2023-02-18T22:06:15.460Z,23.58
2023-02-18T22:09:38.922Z,23.23
2023-02-18T22:13:02.087Z,21.33
2023-02-18T22:16:26.699Z,22.48
2023-02-18T22:19:50.864Z,17.00
2023-02-18T22:23:13.552Z,14.15
2023-02-18T22:26:36.610Z,12.00
2023-02-18T22:29:59.201Z,10.45
2023-02-18T22:33:22.356Z,11.00
2023-02-18T22:36:46.548Z,10.45
2023-02-18T22:40:09.650Z,8.70
2023-02-18T22:43:31.996Z,8.05
2023-02-18T22:46:55.959Z,8.18
2023-02-18T22:50:18.522Z,6.27
2023-02-18T22:53:42.700Z,5.85
2023-02-18T22:57:05.326Z,5.12
2023-02-18T23:00:28.125Z,4.12
2023-02-18T23:03:50.546Z,2.80
2023-02-18T23:07:13.478Z,1.63
2023-02-18T23:10:37.579Z,2.15
2023-02-18T23:14:18.034Z,0.70
2023-02-18T23:17:40.523Z,0.90
2023-02-18T23:21:18.406Z,0.45
2023-02-18T23:24:41.551Z,0.50
2023-02-18T23:28:05.987Z,0.70
2023-02-18T23:31:28.633Z,1.00
2023-02-18T23:34:51.750Z,1.33
2023-02-18T23:38:14.298Z,0.90
2023-02-18T23:41:36.878Z,1.17
2023-02-18T23:45:00.585Z,1.27
2023-02-18T23:48:23.387Z,1.55
2023-02-18T23:51:46.130Z,1.00
2023-02-18T23:55:09.633Z,0.90
2023-02-18T23:58:31.958Z,0.70
